createdAt,value
2022-10-28T00:04:04.793Z,6.05
2022-10-28T00:09:09.701Z,5.72
2022-10-28T00:14:15.120Z,6.30
2022-10-28T00:19:16.752Z,7.78
2022-10-28T00:24:18.700Z,7.70
2022-10-28T00:29:20.396Z,6.78
2022-10-28T00:34:22.527Z,6.60
2022-10-28T00:39:24.549Z,6.60
2022-10-28T00:44:44.453Z,8.38
2022-10-28T00:54:47.907Z,7.60
2022-10-28T00:59:50.959Z,7.72
2022-10-28T01:04:52.767Z,7.25
2022-10-28T01:09:54.428Z,8.05
2022-10-28T01:14:55.809Z,7.32
2022-10-28T01:20:09.293Z,6.88
2022-10-28T01:25:22.873Z,7.90
2022-10-28T01:30:25.408Z,7.55
2022-10-28T01:35:27.104Z,7.80
2022-10-28T01:40:33.993Z,7.38
2022-10-28T01:45:43.529Z,7.35
2022-10-28T01:50:49.716Z,7.38
2022-10-28T01:55:53.057Z,7.18
2022-10-28T02:00:54.714Z,7.30
2022-10-28T02:05:57.383Z,7.82
2022-10-28T02:10:58.699Z,7.07
2022-10-28T02:16:07.448Z,7.13
2022-10-28T02:21:19.798Z,7.27
2022-10-28T02:26:21.629Z,7.28
2022-10-28T02:31:29.255Z,7.15
2022-10-28T02:36:32.831Z,7.70
2022-10-28T02:41:43.772Z,7.53
2022-10-28T02:46:47.499Z,7.32
2022-10-28T02:51:52.416Z,8.75
2022-10-28T02:56:57.298Z,7.47
2022-10-28T03:01:59.196Z,7.18
2022-10-28T03:07:00.658Z,8.30
2022-10-28T03:12:02.001Z,7.65
2022-10-28T03:17:04.168Z,7.20
2022-10-28T03:22:05.657Z,7.70
2022-10-28T03:27:07.253Z,6.68
2022-10-28T03:32:08.737Z,7.63
2022-10-28T03:37:10.233Z,7.70
2022-10-28T03:42:11.628Z,7.05
2022-10-28T03:47:13.217Z,7.20
2022-10-28T03:52:14.701Z,8.05
2022-10-28T03:57:16.210Z,7.35
2022-10-28T04:02:17.917Z,7.80
2022-10-28T04:07:19.924Z,7.55
2022-10-28T04:12:21.264Z,7.00
2022-10-28T04:17:22.707Z,7.32
2022-10-28T04:22:24.086Z,7.57
2022-10-28T04:27:25.654Z,8.60
2022-10-28T04:32:27.287Z,7.32
2022-10-28T04:37:28.642Z,7.72
2022-10-28T04:42:30.082Z,7.32
2022-10-28T04:47:31.630Z,8.07
2022-10-28T04:52:33.000Z,7.35
2022-10-28T04:57:35.502Z,7.35
2022-10-28T05:02:36.913Z,6.90
2022-10-28T05:07:38.327Z,6.68
2022-10-28T05:12:43.269Z,7.90
2022-10-28T05:17:45.394Z,7.20
2022-10-28T05:22:50.657Z,7.25
2022-10-28T05:27:52.412Z,7.00
2022-10-28T05:33:02.962Z,8.07
2022-10-28T05:38:04.519Z,7.13
2022-10-28T05:43:06.069Z,7.03
2022-10-28T05:48:07.613Z,6.72
2022-10-28T05:53:09.194Z,7.20
2022-10-28T05:58:10.675Z,7.43
2022-10-28T06:03:12.495Z,7.22
2022-10-28T06:08:14.311Z,6.65
2022-10-28T06:13:14.382Z,6.88
2022-10-28T06:18:18.849Z,6.88
2022-10-28T06:23:22.478Z,7.13
2022-10-28T06:28:24.545Z,6.70
2022-10-28T06:33:25.932Z,7.03
2022-10-28T06:38:28.160Z,6.30
2022-10-28T06:43:29.607Z,6.25
2022-10-28T06:48:32.672Z,6.53
2022-10-28T06:53:34.118Z,7.18
2022-10-28T06:58:35.594Z,6.75
2022-10-28T07:03:36.931Z,6.75
2022-10-28T07:08:38.302Z,7.10
2022-10-28T07:13:41.128Z,5.97
2022-10-28T07:18:44.004Z,6.10
2022-10-28T07:23:46.761Z,6.22
2022-10-28T07:28:48.424Z,6.30
2022-10-28T07:33:53.063Z,6.22
2022-10-28T07:38:55.133Z,6.85
2022-10-28T07:43:56.621Z,6.38
2022-10-28T07:48:58.003Z,7.03
2022-10-28T07:53:59.464Z,6.80
2022-10-28T07:59:00.964Z,6.78
2022-10-28T08:04:02.488Z,6.45
2022-10-28T08:09:03.890Z,6.80
2022-10-28T08:14:05.282Z,6.55
2022-10-28T08:19:07.779Z,6.57
2022-10-28T08:24:09.422Z,6.43
2022-10-28T08:29:12.131Z,6.47
2022-10-28T08:34:13.552Z,6.85
2022-10-28T08:39:14.986Z,7.43
2022-10-28T08:44:35.098Z,6.20
2022-10-28T08:49:37.320Z,7.13
2022-10-28T08:55:01.038Z,6.22
2022-10-28T09:00:05.055Z,6.60
2022-10-28T09:05:15.322Z,6.50
2022-10-28T09:10:17.736Z,6.03
2022-10-28T09:15:26.043Z,6.00
2022-10-28T09:20:46.253Z,6.38
2022-10-28T09:26:05.266Z,6.28
2022-10-28T09:31:06.636Z,6.82
2022-10-28T09:36:12.396Z,6.32
2022-10-28T09:41:23.202Z,6.53
2022-10-28T09:46:25.949Z,6.90
2022-10-28T09:51:31.094Z,6.10
2022-10-28T09:56:32.554Z,6.53
2022-10-28T10:01:35.071Z,5.85
2022-10-28T10:06:38.462Z,7.07
2022-10-28T10:11:42.924Z,6.55
2022-10-28T10:16:49.104Z,6.93
2022-10-28T10:21:52.035Z,6.03
2022-10-28T10:26:54.138Z,6.32
2022-10-28T10:32:13.998Z,6.25
2022-10-28T10:42:19.476Z,5.90
2022-10-28T10:47:21.198Z,5.85
2022-10-28T10:52:24.308Z,5.97
2022-10-28T10:57:26.375Z,6.30
2022-10-28T11:02:32.504Z,5.90
2022-10-28T11:07:34.192Z,5.90
2022-10-28T11:12:36.644Z,5.63
2022-10-28T11:17:38.056Z,6.15
2022-10-28T11:22:39.422Z,5.78
2022-10-28T11:27:43.718Z,6.22
2022-10-28T11:32:54.751Z,5.70
2022-10-28T11:38:29.497Z,6.63
2022-10-28T11:43:35.814Z,7.10
2022-10-28T11:48:43.045Z,5.63
2022-10-28T11:53:50.379Z,6.00
2022-10-28T11:59:07.837Z,5.75
2022-10-28T12:04:27.590Z,6.30
2022-10-28T12:14:32.969Z,6.50
2022-10-28T12:19:38.897Z,7.57
2022-10-28T12:24:43.112Z,6.13
2022-10-28T12:29:46.007Z,6.78
2022-10-28T12:34:50.899Z,6.68
2022-10-28T12:40:13.202Z,6.13
2022-10-28T12:45:16.214Z,6.38
2022-10-28T12:50:25.396Z,6.00
2022-10-28T12:55:28.387Z,6.07
2022-10-28T13:00:31.980Z,6.18
2022-10-28T13:05:38.504Z,5.53
2022-10-28T13:10:46.537Z,5.97
2022-10-28T13:15:53.811Z,5.75
2022-10-28T13:21:15.993Z,6.20
2022-10-28T13:26:17.508Z,6.20
2022-10-28T13:31:20.411Z,5.78
2022-10-28T13:36:35.464Z,5.40
2022-10-28T13:41:40.029Z,5.30
2022-10-28T13:46:58.922Z,4.97
2022-10-28T13:52:19.896Z,5.20
2022-10-28T13:57:21.246Z,4.93
2022-10-28T14:02:39.725Z,4.70
2022-10-28T14:07:51.554Z,4.85
2022-10-28T14:12:57.627Z,4.85
2022-10-28T14:18:42.995Z,5.15
2022-10-28T14:23:36.614Z,5.18
2022-10-28T14:28:38.275Z,4.50
2022-10-28T14:33:42.434Z,5.18
2022-10-28T14:39:03.776Z,4.85
2022-10-28T14:44:05.489Z,4.85
2022-10-28T14:49:16.843Z,5.47
2022-10-28T14:54:26.660Z,5.13
2022-10-28T14:59:32.582Z,5.28
2022-10-28T15:04:34.190Z,4.72
2022-10-28T15:09:36.308Z,5.75
2022-10-28T15:14:39.840Z,4.47
2022-10-28T15:19:41.838Z,4.40
2022-10-28T15:24:52.427Z,5.30
2022-10-28T15:29:54.115Z,5.07
2022-10-28T15:34:55.656Z,5.43
2022-10-28T15:40:26.132Z,4.68
2022-10-28T15:45:28.909Z,5.15
2022-10-28T15:50:31.903Z,4.93
2022-10-28T16:00:56.134Z,5.70
2022-10-28T16:05:58.825Z,5.00
2022-10-28T16:11:04.341Z,4.38
2022-10-28T16:16:07.538Z,3.95
2022-10-28T16:21:15.235Z,4.88
2022-10-28T16:26:16.781Z,4.13
2022-10-28T16:31:19.529Z,4.57
2022-10-28T16:36:21.135Z,4.15
2022-10-28T16:41:23.238Z,4.00
2022-10-28T16:46:24.634Z,3.90
2022-10-28T16:51:26.039Z,3.95
2022-10-28T16:56:27.498Z,4.43
2022-10-28T17:01:28.926Z,4.13
2022-10-28T17:06:30.365Z,5.25
2022-10-28T17:16:40.692Z,5.03
2022-10-28T17:21:44.704Z,4.35
2022-10-28T17:26:47.369Z,4.03
2022-10-28T17:31:48.832Z,5.22
2022-10-28T17:36:50.358Z,4.55
2022-10-28T17:41:51.747Z,4.82
2022-10-28T17:46:53.158Z,5.13
2022-10-28T17:51:55.219Z,4.75
2022-10-28T17:56:56.906Z,4.18
2022-10-28T18:01:58.643Z,4.18
2022-10-28T18:07:00.139Z,3.95
2022-10-28T18:12:04.329Z,4.65
2022-10-28T18:17:06.912Z,4.72
2022-10-28T18:22:08.421Z,4.07
2022-10-28T18:27:09.784Z,3.83
2022-10-28T18:32:12.097Z,4.25
2022-10-28T18:37:13.464Z,4.20
2022-10-28T18:42:19.269Z,3.35
2022-10-28T18:47:23.221Z,3.45
2022-10-28T18:52:24.678Z,3.60
2022-10-28T18:57:28.762Z,3.33
2022-10-28T19:02:30.320Z,3.83
2022-10-28T19:07:32.048Z,3.97
2022-10-28T19:12:33.483Z,2.90
2022-10-28T19:17:34.927Z,3.40
2022-10-28T19:22:36.364Z,3.80
2022-10-28T19:27:37.779Z,3.30
2022-10-28T19:32:39.505Z,3.45
2022-10-28T19:37:40.936Z,3.72
2022-10-28T19:42:42.370Z,3.40
2022-10-28T19:47:43.928Z,3.80
2022-10-28T19:52:45.660Z,3.85
2022-10-28T19:57:49.008Z,3.42
2022-10-28T20:02:56.547Z,4.18
2022-10-28T20:07:58.106Z,4.30
2022-10-28T20:12:59.490Z,4.50
2022-10-28T20:18:00.985Z,4.40
2022-10-28T20:23:02.413Z,3.92
2022-10-28T20:28:03.893Z,4.13
2022-10-28T20:33:06.610Z,3.90
2022-10-28T20:43:09.837Z,3.80
2022-10-28T20:48:11.343Z,4.45
2022-10-28T20:53:15.879Z,3.67
2022-10-28T20:58:17.400Z,3.67
2022-10-28T21:03:19.251Z,3.42
2022-10-28T21:08:20.637Z,3.45
2022-10-28T21:13:22.098Z,3.50
2022-10-28T21:18:23.599Z,3.65
2022-10-28T21:23:25.640Z,3.25
2022-10-28T21:28:28.822Z,4.10
2022-10-28T21:33:30.367Z,3.72
2022-10-28T21:38:32.108Z,4.38
2022-10-28T21:43:35.206Z,3.63
2022-10-28T21:48:37.283Z,3.35
2022-10-28T21:53:38.891Z,3.38
2022-10-28T21:58:40.787Z,3.78
2022-10-28T22:03:42.457Z,3.40
2022-10-28T22:08:44.184Z,4.20
2022-10-28T22:13:45.802Z,3.50
2022-10-28T22:18:47.262Z,3.90
2022-10-28T22:23:49.212Z,3.55
2022-10-28T22:28:51.080Z,4.05
2022-10-28T22:33:52.533Z,4.43
2022-10-28T22:38:54.330Z,4.18
2022-10-28T22:43:57.179Z,4.55
2022-10-28T22:48:58.716Z,4.28
2022-10-28T22:54:00.265Z,4.32
2022-10-28T22:59:02.116Z,3.95
2022-10-28T23:04:03.637Z,3.50
2022-10-28T23:09:05.235Z,3.90
2022-10-28T23:14:06.941Z,3.65
2022-10-28T23:19:09.595Z,3.67
2022-10-28T23:24:11.295Z,3.83
2022-10-28T23:29:14.126Z,3.80
2022-10-28T23:34:15.600Z,3.90
2022-10-28T23:39:17.015Z,4.00
2022-10-28T23:44:19.311Z,4.22
2022-10-28T23:49:20.818Z,3.55
2022-10-28T23:54:22.138Z,3.55
2022-10-28T23:59:23.512Z,3.50
